createdAt,value
2018-01-04T00:00:04.872Z,94.50
2018-01-04T00:02:34.849Z,94.50
2018-01-04T00:05:01.466Z,94.50
2018-01-04T00:07:28.740Z,94.40
2018-01-04T00:09:56.016Z,94.40
2018-01-04T00:12:23.219Z,94.50
2018-01-04T00:14:49.746Z,94.40
2018-01-04T00:17:17.041Z,94.80
2018-01-04T00:19:43.517Z,94.80
2018-01-04T00:22:13.001Z,95.10
2018-01-04T00:24:40.275Z,95.30
2018-01-04T00:27:07.550Z,95.40
2018-01-04T00:29:34.882Z,95.50
2018-01-04T00:32:01.376Z,95.50
2018-01-04T00:34:28.575Z,95.60
2018-01-04T00:36:55.051Z,95.60
2018-01-04T00:39:21.547Z,95.70
2018-01-04T00:41:48.848Z,96.00
2018-01-04T00:44:16.121Z,96.10
2018-01-04T00:46:42.882Z,96.10
2018-01-04T00:49:09.440Z,96.20
2018-01-04T00:51:36.713Z,96.50
2018-01-04T00:54:03.976Z,96.60
2018-01-04T00:56:31.263Z,96.70
2018-01-04T00:58:58.543Z,96.80
2018-01-04T01:01:25.031Z,96.80
2018-01-04T01:03:52.576Z,96.80
2018-01-04T01:06:19.849Z,96.90
2018-01-04T01:08:47.067Z,97.10
2018-01-04T01:11:14.938Z,97.00
2018-01-04T01:13:41.474Z,97.10
2018-01-04T01:16:07.921Z,97.00
2018-01-04T01:18:35.117Z,97.10
2018-01-04T01:21:01.605Z,97.10
2018-01-04T01:23:28.111Z,97.00
2018-01-04T01:25:55.386Z,96.90
2018-01-04T01:28:23.277Z,96.90
2018-01-04T01:30:49.836Z,96.90
2018-01-04T01:33:17.066Z,96.90
2018-01-04T01:35:43.676Z,96.90
2018-01-04T01:38:10.128Z,97.00
2018-01-04T01:40:36.681Z,96.90
2018-01-04T01:43:03.239Z,96.90
2018-01-04T01:45:30.991Z,96.90
2018-01-04T01:47:57.584Z,96.80
2018-01-04T01:50:24.861Z,96.70
2018-01-04T01:52:51.332Z,96.70
2018-01-04T01:55:18.791Z,96.70
2018-01-04T01:57:46.072Z,96.60
2018-01-04T02:00:12.629Z,96.60
2018-01-04T02:02:39.093Z,96.50
2018-01-04T02:05:05.643Z,96.50
2018-01-04T02:07:32.915Z,96.30
2018-01-04T02:10:00.231Z,96.10
2018-01-04T02:12:27.373Z,96.10
2018-01-04T02:14:53.922Z,96.10
2018-01-04T02:17:30.872Z,96.10
2018-01-04T02:20:09.746Z,96.20
2018-01-04T02:22:46.988Z,96.00
2018-01-04T02:25:25.769Z,96.00
2018-01-04T02:28:05.318Z,96.00
2018-01-04T02:30:43.844Z,96.00
2018-01-04T02:33:22.572Z,96.00
2018-01-04T02:36:01.992Z,95.90
2018-01-04T02:38:40.744Z,96.00
2018-01-04T02:41:20.205Z,95.90
2018-01-04T02:44:01.578Z,95.90
2018-01-04T02:46:28.790Z,95.50
2018-01-04T02:48:56.341Z,95.50
2018-01-04T02:51:22.894Z,95.40
2018-01-04T02:53:49.337Z,95.40
2018-01-04T02:56:16.524Z,95.10
2018-01-04T02:58:43.052Z,95.20
2018-01-04T03:01:09.536Z,95.20
2018-01-04T03:05:15.068Z,95.20
2018-01-04T03:07:41.560Z,95.10
2018-01-04T03:10:08.025Z,95.30
2018-01-04T03:12:34.487Z,95.10
2018-01-04T03:15:00.961Z,95.00
2018-01-04T03:17:27.463Z,94.90
2018-01-04T03:19:54.654Z,95.00
2018-01-04T03:22:27.188Z,95.00
2018-01-04T03:25:12.576Z,95.00
2018-01-04T03:27:45.104Z,95.10
2018-01-04T03:30:18.473Z,95.10
2018-01-04T03:32:51.068Z,95.10
2018-01-04T03:35:23.669Z,95.10
2018-01-04T03:37:56.268Z,95.00
2018-01-04T03:40:28.954Z,95.00
2018-01-04T03:43:01.504Z,95.00
2018-01-04T03:45:34.080Z,95.10
2018-01-04T03:48:06.648Z,95.20
2018-01-04T03:50:40.180Z,94.90
2018-01-04T03:53:13.449Z,94.90
2018-01-04T03:55:46.087Z,94.90
2018-01-04T03:58:12.639Z,94.90
2018-01-04T04:00:45.903Z,94.80
2018-01-04T04:03:12.511Z,94.80
2018-01-04T04:05:45.052Z,94.80
2018-01-04T04:08:17.672Z,94.80
2018-01-04T04:10:44.352Z,94.60
2018-01-04T04:13:11.626Z,94.50
2018-01-04T04:15:38.902Z,94.60
2018-01-04T04:18:05.460Z,94.60
2018-01-04T04:20:32.735Z,94.60
2018-01-04T04:22:59.937Z,94.50
2018-01-04T04:25:26.468Z,94.50
2018-01-04T04:27:53.024Z,94.40
2018-01-04T04:30:20.298Z,94.50
2018-01-04T04:32:47.504Z,94.50
2018-01-04T04:35:13.972Z,94.50
2018-01-04T04:37:40.486Z,94.50
2018-01-04T04:40:08.377Z,94.40
2018-01-04T04:42:34.855Z,94.40
2018-01-04T04:45:01.387Z,94.60
2018-01-04T04:47:28.663Z,94.20
2018-01-04T04:49:55.938Z,94.10
2018-01-04T04:52:23.212Z,94.20
2018-01-04T04:54:50.486Z,94.20
2018-01-04T04:57:17.044Z,94.10
2018-01-04T04:59:44.319Z,94.20
2018-01-04T05:02:11.530Z,94.20
2018-01-04T05:04:38.049Z,94.20
2018-01-04T05:07:04.609Z,94.40
2018-01-04T05:09:31.166Z,94.40
2018-01-04T05:11:59.364Z,94.40
2018-01-04T05:14:25.920Z,94.40
2018-01-04T05:16:53.194Z,94.30
2018-01-04T05:19:20.469Z,94.30
2018-01-04T05:21:47.669Z,94.30
2018-01-04T05:24:14.199Z,94.20
2018-01-04T05:26:41.473Z,94.30
2018-01-04T05:29:08.747Z,94.30
2018-01-04T05:31:36.098Z,94.20
2018-01-04T05:34:02.684Z,94.30
2018-01-04T05:36:29.908Z,94.20
2018-01-04T05:38:56.383Z,94.20
2018-01-04T05:41:22.872Z,94.50
2018-01-04T05:43:50.073Z,94.10
2018-01-04T05:46:17.499Z,94.10
2018-01-04T05:48:44.757Z,94.50
2018-01-04T05:51:11.804Z,94.10
2018-01-04T05:53:38.427Z,94.10
2018-01-04T05:56:04.922Z,94.20
2018-01-04T05:58:31.470Z,94.30
2018-01-04T06:00:57.998Z,94.30
2018-01-04T06:03:25.178Z,94.20
2018-01-04T06:05:51.729Z,94.20
2018-01-04T06:08:18.931Z,94.20
2018-01-04T06:10:45.460Z,94.50
2018-01-04T06:13:12.736Z,94.20
2018-01-04T06:15:39.220Z,94.20
2018-01-04T06:18:05.748Z,94.20
2018-01-04T06:20:33.032Z,94.10
2018-01-04T06:22:59.580Z,94.10
2018-01-04T06:25:26.789Z,94.20
2018-01-04T06:27:53.618Z,94.20
2018-01-04T06:30:20.177Z,94.20
2018-01-04T06:32:47.395Z,94.10
2018-01-04T06:35:13.910Z,94.10
2018-01-04T06:37:40.386Z,93.90
2018-01-04T06:40:07.560Z,93.80
2018-01-04T06:42:34.752Z,93.90
2018-01-04T06:45:01.985Z,93.70
2018-01-04T06:50:00.765Z,93.50
2018-01-04T06:52:27.193Z,93.50
2018-01-04T06:54:53.677Z,93.40
2018-01-04T06:57:20.137Z,93.40
2018-01-04T06:59:46.590Z,93.30
2018-01-04T07:02:13.104Z,93.20
2018-01-04T07:04:41.075Z,93.00
2018-01-04T07:07:07.538Z,92.90
2018-01-04T07:09:34.771Z,93.00
2018-01-04T07:12:01.241Z,93.00
2018-01-04T07:14:27.730Z,92.90
2018-01-04T07:16:54.971Z,92.90
2018-01-04T07:19:21.460Z,92.90
2018-01-04T07:21:48.699Z,92.70
2018-01-04T07:24:15.142Z,92.70
2018-01-04T07:26:41.616Z,92.70
2018-01-04T07:29:08.132Z,92.70
2018-01-04T07:31:34.609Z,93.00
2018-01-04T07:34:01.089Z,92.60
2018-01-04T07:36:27.573Z,92.60
2018-01-04T07:38:54.777Z,92.40
2018-01-04T07:41:21.256Z,92.40
2018-01-04T07:43:47.744Z,92.40
2018-01-04T07:46:14.232Z,92.40
2018-01-04T07:48:40.742Z,92.40
2018-01-04T07:51:07.204Z,92.30
2018-01-04T07:53:33.667Z,92.20
2018-01-04T07:56:00.122Z,92.30
2018-01-04T07:58:26.607Z,92.30
2018-01-04T08:00:54.345Z,92.30
2018-01-04T08:03:20.854Z,92.30
2018-01-04T08:05:48.677Z,92.10
2018-01-04T08:08:15.302Z,92.10
2018-01-04T08:10:42.680Z,92.20
2018-01-04T08:13:09.953Z,92.20
2018-01-04T08:15:37.179Z,92.20
2018-01-04T08:18:03.785Z,92.20
2018-01-04T08:20:31.061Z,92.00
2018-01-04T08:22:58.341Z,92.20
2018-01-04T08:25:24.894Z,92.20
2018-01-04T08:27:51.454Z,92.10
2018-01-04T08:30:18.016Z,91.80
2018-01-04T08:32:44.568Z,91.80
2018-01-04T08:35:11.798Z,91.60
2018-01-04T08:37:38.280Z,91.60
2018-01-04T08:40:04.751Z,91.60
2018-01-04T08:42:32.029Z,91.50
2018-01-04T08:44:59.304Z,91.30
2018-01-04T08:47:26.499Z,91.10
2018-01-04T08:49:52.994Z,91.10
2018-01-04T08:52:19.486Z,91.20
2018-01-04T08:54:46.699Z,91.20
2018-01-04T08:57:13.332Z,91.10
2018-01-04T08:59:39.883Z,91.40
2018-01-04T09:02:07.131Z,91.40
2018-01-04T09:04:33.615Z,91.40
2018-01-04T09:07:00.891Z,91.40
2018-01-04T09:09:27.505Z,91.40
2018-01-04T09:11:57.686Z,91.40
2018-01-04T09:14:25.065Z,91.30
2018-01-04T09:16:51.629Z,91.70
2018-01-04T09:19:18.180Z,91.30
2018-01-04T09:21:45.456Z,91.30
2018-01-04T09:24:12.006Z,91.30
2018-01-04T09:26:39.287Z,91.20
2018-01-04T09:29:06.562Z,91.10
2018-01-04T09:31:33.940Z,91.00
2018-01-04T09:34:01.137Z,91.10
2018-01-04T09:36:27.671Z,91.10
2018-01-04T09:38:55.064Z,91.00
2018-01-04T09:41:21.605Z,91.00
2018-01-04T09:43:48.879Z,90.90
2018-01-04T09:46:16.057Z,90.90
2018-01-04T09:48:43.428Z,90.80
2018-01-04T09:51:10.702Z,91.00
2018-01-04T09:53:37.918Z,91.10
2018-01-04T09:56:04.432Z,91.10
2018-01-04T09:58:31.812Z,91.00
2018-01-04T10:00:58.369Z,91.00
2018-01-04T10:03:25.643Z,91.00
2018-01-04T10:05:52.917Z,91.30
2018-01-04T10:08:20.128Z,91.20
2018-01-04T10:10:46.588Z,91.20
2018-01-04T10:13:13.106Z,91.20
2018-01-04T10:15:39.614Z,91.10
2018-01-04T10:18:06.717Z,91.30
2018-01-04T10:20:34.006Z,91.20
2018-01-04T10:23:01.284Z,91.30
2018-01-04T10:25:28.555Z,91.20
2018-01-04T10:27:55.935Z,91.00
2018-01-04T10:30:22.491Z,91.00
2018-01-04T10:32:49.801Z,90.80
2018-01-04T10:35:16.304Z,90.80
2018-01-04T10:37:42.884Z,90.80
2018-01-04T10:40:09.353Z,90.60
2018-01-04T10:42:35.999Z,90.40
2018-01-04T10:45:03.278Z,90.60
2018-01-04T10:47:29.834Z,90.60
2018-01-04T10:49:56.394Z,90.50
2018-01-04T10:52:23.608Z,90.30
2018-01-04T10:54:50.887Z,90.30
2018-01-04T10:57:17.414Z,90.30
2018-01-04T10:59:43.922Z,90.30
2018-01-04T11:02:10.394Z,90.40
2018-01-04T11:04:36.893Z,90.40
2018-01-04T11:07:03.363Z,90.40
2018-01-04T11:09:29.859Z,90.40
2018-01-04T11:11:56.373Z,90.40
2018-01-04T11:14:22.856Z,90.20
2018-01-04T11:16:49.394Z,90.40
2018-01-04T11:19:15.898Z,90.40
2018-01-04T11:21:43.126Z,90.30
2018-01-04T11:24:09.618Z,90.30
2018-01-04T11:26:36.202Z,90.50
2018-01-04T11:29:02.759Z,90.30
2018-01-04T11:31:30.033Z,90.40
2018-01-04T11:33:57.307Z,89.90
2018-01-04T11:36:24.581Z,90.00
2018-01-04T11:38:51.858Z,90.00
2018-01-04T11:41:19.130Z,89.50
2018-01-04T11:43:46.364Z,89.70
2018-01-04T11:46:13.020Z,89.70
2018-01-04T11:48:39.505Z,89.90
2018-01-04T11:51:06.797Z,90.10
2018-01-04T11:53:34.071Z,90.00
2018-01-04T11:56:01.348Z,90.10
2018-01-04T11:58:28.560Z,90.30
2018-01-04T12:00:55.060Z,90.20
2018-01-04T12:03:22.454Z,90.30
2018-01-04T12:05:49.738Z,90.30
2018-01-04T12:08:16.286Z,90.30
2018-01-04T12:10:43.505Z,90.40
2018-01-04T12:13:10.029Z,90.40
2018-01-04T12:15:36.514Z,90.20
2018-01-04T12:18:03.025Z,90.00
2018-01-04T12:20:30.407Z,89.60
2018-01-04T12:22:57.690Z,89.80
2018-01-04T12:25:24.726Z,89.60
2018-01-04T12:27:51.414Z,89.40
2018-01-04T12:30:17.977Z,88.90
2018-01-04T12:32:44.422Z,88.40
2018-01-04T12:35:11.702Z,89.00
2018-01-04T12:37:43.454Z,88.90
2018-01-04T12:40:09.921Z,88.90
2018-01-04T12:42:37.139Z,88.20
2018-01-04T12:45:03.699Z,88.20
2018-01-04T12:47:30.183Z,88.20
2018-01-04T12:49:56.685Z,88.10
2018-01-04T12:52:23.190Z,87.80
2018-01-04T12:54:49.675Z,87.90
2018-01-04T12:57:16.173Z,88.00
2018-01-04T12:59:42.684Z,88.00
2018-01-04T13:02:09.190Z,88.10
2018-01-04T13:04:35.671Z,88.50
2018-01-04T13:07:02.179Z,88.80
2018-01-04T13:09:28.675Z,88.40
2018-01-04T13:11:55.159Z,88.30
2018-01-04T13:14:21.663Z,88.20
2018-01-04T13:16:48.191Z,88.20
2018-01-04T13:19:15.404Z,88.80
2018-01-04T13:21:41.940Z,88.70
2018-01-04T13:24:08.566Z,88.80
2018-01-04T13:26:35.104Z,88.80
2018-01-04T13:29:01.749Z,88.90
2018-01-04T13:31:29.195Z,88.70
2018-01-04T13:33:56.549Z,89.00
2018-01-04T13:36:23.185Z,89.00
2018-01-04T13:38:49.719Z,89.10
2018-01-04T13:41:16.359Z,89.40
2018-01-04T13:43:43.203Z,90.00
2018-01-04T13:46:10.552Z,90.00
2018-01-04T13:48:37.296Z,90.00
2018-01-04T13:51:04.034Z,89.90
2018-01-04T13:53:30.671Z,89.80
2018-01-04T13:55:58.023Z,89.80
2018-01-04T13:58:24.660Z,89.10
2018-01-04T14:00:51.297Z,89.40
2018-01-04T14:03:17.934Z,89.30
2018-01-04T14:05:45.288Z,89.90
2018-01-04T14:08:12.642Z,90.00
2018-01-04T14:10:39.176Z,90.00
2018-01-04T14:13:05.916Z,89.90
2018-01-04T14:15:32.553Z,90.30
2018-01-04T14:17:59.905Z,90.00
2018-01-04T14:20:26.544Z,90.00
2018-01-04T14:22:53.078Z,89.60
2018-01-04T14:25:19.716Z,89.30
2018-01-04T14:27:47.683Z,89.50
2018-01-04T14:30:14.225Z,89.50
2018-01-04T14:32:40.957Z,89.90
2018-01-04T14:35:07.595Z,90.00
2018-01-04T14:37:34.130Z,90.00
2018-01-04T14:40:00.868Z,90.10
2018-01-04T14:42:27.813Z,90.20
2018-01-04T14:44:54.756Z,90.10
2018-01-04T14:47:24.980Z,90.20
2018-01-04T14:49:51.716Z,90.30
2018-01-04T14:52:18.558Z,90.50
2018-01-04T14:54:45.197Z,90.70
2018-01-04T14:57:11.751Z,90.90
2018-01-04T14:59:38.573Z,90.80
2018-01-04T15:02:05.517Z,90.90
2018-01-04T15:04:32.973Z,90.80
2018-01-04T15:06:59.610Z,90.80
2018-01-04T15:09:26.343Z,90.60
2018-01-04T15:11:53.190Z,90.40
2018-01-04T15:14:19.933Z,90.20
2018-01-04T15:16:47.583Z,90.30
2018-01-04T15:19:14.422Z,90.30
2018-01-04T15:21:41.378Z,90.50
2018-01-04T15:24:08.118Z,90.40
2018-01-04T15:26:34.876Z,90.50
2018-01-04T15:29:01.800Z,90.60
2018-01-04T15:31:29.364Z,90.70
2018-01-04T15:33:56.305Z,90.70
2018-01-04T15:36:23.043Z,90.70
2018-01-04T15:38:49.785Z,90.80
2018-01-04T15:41:16.420Z,90.90
2018-01-04T15:43:43.676Z,91.10
2018-01-04T15:46:11.844Z,91.30
2018-01-04T15:48:38.686Z,91.20
2018-01-04T15:51:05.612Z,91.10
2018-01-04T15:53:32.371Z,91.20
2018-01-04T15:55:59.419Z,91.30
2018-01-04T15:58:26.261Z,91.60
2018-01-04T16:00:52.997Z,91.50
2018-01-04T16:03:19.836Z,91.60
2018-01-04T16:05:46.580Z,91.60
2018-01-04T16:08:13.526Z,91.60
2018-01-04T16:10:40.264Z,91.70
2018-01-04T16:13:06.801Z,91.80
2018-01-04T16:15:34.213Z,91.70
2018-01-04T16:18:00.891Z,91.60
2018-01-04T16:20:27.631Z,91.70
2018-01-04T16:22:54.268Z,91.90
2018-01-04T16:25:20.904Z,92.00
2018-01-04T16:27:47.542Z,92.20
2018-01-04T16:30:14.282Z,92.20
2018-01-04T16:32:40.920Z,92.30
2018-01-04T16:35:07.554Z,92.20
2018-01-04T16:37:34.909Z,92.30
2018-01-04T16:40:01.547Z,92.30
2018-01-04T16:42:28.388Z,92.30
2018-01-04T16:44:55.027Z,92.40
2018-01-04T16:47:22.586Z,92.50
2018-01-04T16:49:49.220Z,92.50
2018-01-04T16:52:15.858Z,92.70
2018-01-04T16:54:42.499Z,92.80
2018-01-04T16:57:09.132Z,92.80
2018-01-04T16:59:35.769Z,92.90
2018-01-04T17:02:02.409Z,92.80
2018-01-04T17:04:29.045Z,92.90
2018-01-04T17:06:55.886Z,92.90
2018-01-04T17:09:23.240Z,93.00
2018-01-04T17:11:49.780Z,93.00
2018-01-04T17:14:16.416Z,93.10
2018-01-04T17:16:43.152Z,93.00
2018-01-04T17:19:10.503Z,93.00
2018-01-04T17:21:37.857Z,93.10
2018-01-04T17:24:04.498Z,93.10
2018-01-04T17:26:31.242Z,93.20
2018-01-04T17:28:57.878Z,93.30
2018-01-04T17:31:25.430Z,93.40
2018-01-04T17:33:52.071Z,93.40
2018-01-04T17:36:18.724Z,93.50
2018-01-04T17:38:45.342Z,93.70
2018-01-04T17:41:12.695Z,94.00
2018-01-04T17:43:39.331Z,93.90
2018-01-04T17:46:05.970Z,93.90
2018-01-04T17:48:32.627Z,94.00
2018-01-04T17:50:59.247Z,94.00
2018-01-04T17:53:25.826Z,94.30
2018-01-04T17:55:53.132Z,94.80
2018-01-04T17:58:19.768Z,94.80
2018-01-04T18:00:46.405Z,95.10
2018-01-04T18:03:13.113Z,95.40
2018-01-04T18:05:39.679Z,95.90
2018-01-04T18:08:06.420Z,95.60
2018-01-04T18:10:33.261Z,95.80
2018-01-04T18:13:00.718Z,95.90
2018-01-04T18:15:28.582Z,95.90
2018-01-04T18:17:56.230Z,96.00
2018-01-04T18:20:22.880Z,96.20
2018-01-04T18:22:50.439Z,96.50
2018-01-04T18:25:18.003Z,96.50
2018-01-04T18:27:45.562Z,96.80
2018-01-04T18:30:13.629Z,96.90
2018-01-04T18:32:41.382Z,96.90
2018-01-04T18:35:09.258Z,96.80
2018-01-04T18:37:37.129Z,96.90
2018-01-04T18:40:03.967Z,97.20
2018-01-04T18:42:31.114Z,97.10
2018-01-04T18:44:58.570Z,97.30
2018-01-04T18:47:25.411Z,97.30
2018-01-04T18:49:52.051Z,97.30
2018-01-04T18:52:19.200Z,97.40
2018-01-04T18:54:45.835Z,97.70
2018-01-04T18:57:13.586Z,98.10
2018-01-04T18:59:40.338Z,98.00
2018-01-04T19:02:07.384Z,98.10
2018-01-04T19:04:34.229Z,98.30
2018-01-04T19:07:01.687Z,98.50
2018-01-04T19:09:29.038Z,98.60
2018-01-04T19:11:56.393Z,98.80
2018-01-04T19:14:23.234Z,98.80
2018-01-04T19:16:49.974Z,98.70
2018-01-04T19:19:16.800Z,98.70
2018-01-04T19:21:43.649Z,98.70
2018-01-04T19:24:10.394Z,98.60
2018-01-04T19:26:37.032Z,98.60
2018-01-04T19:29:04.591Z,98.70
2018-01-04T19:31:31.436Z,98.70
2018-01-04T19:33:58.069Z,98.70
2018-01-04T19:36:24.692Z,98.80
2018-01-04T19:38:51.450Z,98.70
2018-01-04T19:41:18.389Z,98.70
2018-01-04T19:43:45.029Z,98.70
2018-01-04T19:46:12.380Z,98.60
2018-01-04T19:48:39.117Z,98.60
2018-01-04T19:51:05.861Z,98.50
2018-01-04T19:53:32.599Z,98.50
2018-01-04T19:55:59.440Z,98.50
2018-01-04T19:58:26.065Z,98.50
2018-01-04T20:00:53.023Z,98.60
2018-01-04T20:03:19.965Z,98.60
2018-01-04T20:05:46.606Z,98.70
2018-01-04T20:08:13.322Z,98.80
2018-01-04T20:10:40.288Z,99.00
2018-01-04T20:13:07.437Z,99.10
2018-01-04T20:15:35.059Z,99.30
2018-01-04T20:18:02.658Z,99.50
2018-01-04T20:20:29.292Z,99.50
2018-01-04T20:22:57.773Z,99.60
2018-01-04T20:25:24.921Z,99.60
2018-01-04T20:27:51.667Z,99.60
2018-01-04T20:30:18.590Z,99.60
2018-01-04T20:32:45.760Z,99.70
2018-01-04T20:35:12.596Z,99.70
2018-01-04T20:37:39.234Z,99.80
2018-01-04T20:40:06.793Z,99.80
2018-01-04T20:42:33.735Z,99.90
2018-01-04T20:45:07.337Z,99.90
2018-01-04T20:47:34.997Z,99.90
2018-01-04T20:50:01.840Z,99.90
2018-01-04T20:52:29.091Z,99.90
2018-01-04T20:54:56.652Z,99.90
2018-01-04T20:57:23.597Z,99.90
2018-01-04T20:59:50.335Z,99.90
2018-01-04T21:02:16.868Z,99.90
2018-01-04T21:04:43.505Z,99.90
2018-01-04T21:07:10.859Z,99.90
2018-01-04T21:09:37.425Z,99.90
2018-01-04T21:12:04.034Z,99.90
2018-01-04T21:14:30.669Z,99.90
2018-01-04T21:16:58.025Z,99.90
2018-01-04T21:19:24.574Z,99.90
2018-01-04T21:21:51.194Z,99.90
2018-01-04T21:24:17.932Z,99.90
2018-01-04T21:26:44.571Z,99.90
2018-01-04T21:29:11.207Z,99.90
2018-01-04T21:31:37.847Z,99.90
2018-01-04T21:34:04.487Z,99.90
2018-01-04T21:36:31.203Z,99.90
2018-01-04T21:38:57.798Z,99.90
2018-01-04T21:41:24.392Z,99.90
2018-01-04T21:43:51.031Z,99.90
2018-01-04T21:46:17.770Z,99.90
2018-01-04T21:48:45.123Z,99.90
2018-01-04T21:51:11.863Z,99.90
2018-01-04T21:53:38.502Z,99.90
2018-01-04T21:56:05.447Z,99.90
2018-01-04T21:58:32.181Z,99.90
2018-01-04T22:00:58.819Z,99.90
2018-01-04T22:03:26.520Z,99.90
2018-01-04T22:05:53.219Z,99.90
2018-01-04T22:08:19.856Z,99.90
2018-01-04T22:10:47.418Z,99.90
2018-01-04T22:13:13.951Z,99.90
2018-01-04T22:15:40.587Z,99.90
2018-01-04T22:18:07.225Z,99.90
2018-01-04T22:20:34.578Z,99.90
2018-01-04T22:23:01.216Z,99.90
2018-01-04T22:25:27.852Z,99.90
2018-01-04T22:27:54.492Z,99.90
2018-01-04T22:30:21.333Z,99.90
2018-01-04T22:32:48.787Z,99.90
2018-01-04T22:35:15.529Z,99.90
2018-01-04T22:37:42.164Z,99.90
2018-01-04T22:40:08.894Z,99.90
2018-01-04T22:42:35.745Z,99.90
2018-01-04T22:45:02.591Z,99.90
2018-01-04T22:47:29.736Z,99.90
2018-01-04T22:49:57.090Z,99.90
2018-01-04T22:52:24.649Z,99.90
2018-01-04T22:54:51.506Z,99.90
2018-01-04T22:57:18.948Z,99.90
2018-01-04T22:59:45.792Z,99.90
2018-01-04T23:02:12.629Z,99.90
2018-01-04T23:04:39.370Z,99.90
2018-01-04T23:07:06.928Z,99.90
2018-01-04T23:09:33.878Z,99.90
2018-01-04T23:12:00.601Z,99.90
2018-01-04T23:14:27.455Z,99.90
2018-01-04T23:16:55.115Z,99.90
2018-01-04T23:19:21.860Z,99.90
2018-01-04T23:21:48.594Z,99.90
2018-01-04T23:24:15.334Z,99.90
2018-01-04T23:26:42.176Z,99.90
2018-01-04T23:29:08.917Z,99.90
2018-01-04T23:31:35.556Z,99.90
2018-01-04T23:34:02.385Z,99.90
2018-01-04T23:36:30.047Z,99.90
2018-01-04T23:38:56.797Z,99.90
2018-01-04T23:41:23.534Z,99.90
2018-01-04T23:43:50.360Z,99.90
2018-01-04T23:46:17.016Z,99.90
2018-01-04T23:48:43.752Z,99.90
2018-01-04T23:51:10.493Z,99.90
2018-01-04T23:53:37.129Z,99.90
2018-01-04T23:56:04.074Z,99.90
2018-01-04T23:58:31.018Z,99.90
